Time;durP1;ratioP1;P1;durP2;ratioP2;P2;SDS_P1;SDS_P2;PMS_P1;PMS_P2;Temp;Humidity;BMP_temperature;BMP_pressure;BME280_temperature;BME280_humidity;BME280_pressure;Samples;Min_cycle;Max_cycle;Signal;HPM_P1;HPM_P2
2022/01/26 00:00:06;;;;;;;3.25;2.30;;;2.00;99.90;;;2.05;99.92;102287.66;5029170;28;20222;-65
2022/01/26 00:08:06;;;;;;;2.85;2.63;;;2.10;99.90;;;2.15;100.00;102284.16;5025101;28;20198;-64
2022/01/26 00:10:34;;;;;;;5.90;3.20;;;2.10;99.90;;;2.11;100.00;102275.59;5028444;28;20229;-65
2022/01/26 00:13:01;;;;;;;4.65;2.45;;;2.20;99.90;;;2.03;100.00;102279.13;5012549;28;20259;-64
2022/01/26 00:15:30;;;;;;;10.20;3.78;;;2.10;99.90;;;2.05;99.97;102274.78;5028636;28;20236;-66
2022/01/26 00:17:57;;;;;;;8.23;3.78;;;2.10;99.90;;;2.08;100.00;102279.94;5028691;28;20194;-65
2022/01/26 00:20:31;;;;;;;9.45;3.35;;;2.10;99.90;;;2.15;99.76;102282.41;5011930;28;20233;-65
2022/01/26 00:23:08;;;;;;;8.75;4.95;;;2.20;99.90;;;2.22;99.77;102280.63;5030269;28;20217;-66
2022/01/26 00:25:57;;;;;;;9.43;4.72;;;2.20;99.90;;;2.19;99.74;102278.91;5028175;28;20258;-67
2022/01/26 00:28:58;;;;;;;6.03;3.42;;;2.20;99.90;;;2.23;99.44;102275.47;5030208;28;20661;-65
2022/01/26 00:39:41;;;;;;;5.90;2.95;;;2.20;99.90;;;2.08;98.82;102269.63;5029401;28;20292;-67
2022/01/26 00:42:08;;;;;;;8.27;3.53;;;2.20;99.90;;;1.96;99.15;102262.88;5030573;28;20208;-64
2022/01/26 00:44:43;;;;;;;3.47;2.40;;;2.20;99.90;;;1.89;99.72;102270.69;5033995;28;20256;-65
2022/01/26 00:47:11;;;;;;;4.13;2.78;;;2.00;99.90;;;1.94;99.50;102268.94;5027186;28;20314;-66
2022/01/26 00:49:38;;;;;;;8.07;3.53;;;2.00;99.90;;;1.94;100.00;102268.94;5018910;28;20209;-66
2022/01/26 00:52:07;;;;;;;6.88;2.53;;;1.90;99.90;;;1.88;100.00;102269.84;5045370;22;20231;-71
2022/01/26 00:54:34;;;;;;;2.95;1.85;;;1.90;99.90;;;1.93;100.00;102272.38;5024540;28;20225;-68
2022/01/26 00:57:01;;;;;;;5.28;1.92;;;2.00;99.90;;;1.86;100.00;102263.00;5015506;28;20198;-71
2022/01/26 00:59:29;;;;;;;4.82;2.70;;;1.90;99.90;;;1.80;100.00;102265.63;5016948;28;20202;-71
2022/01/26 01:01:56;;;;;;;6.97;3.58;;;1.80;99.90;;;1.84;100.00;102259.59;5029886;28;20228;-70
2022/01/26 01:04:24;;;;;;;7.95;2.90;;;1.90;99.90;;;1.84;100.00;102267.31;5029848;28;20296;-71
2022/01/26 01:06:57;;;;;;;4.65;3.03;;;1.90;99.90;;;1.88;100.00;102266.41;5012950;28;20210;-71
2022/01/26 01:09:25;;;;;;;4.65;2.70;;;1.90;99.90;;;1.94;100.00;102267.19;5032258;28;20205;-71
2022/01/26 01:11:56;;;;;;;2.40;1.65;;;1.90;99.90;;;2.00;99.71;102274.84;5031443;28;20221;-72
2022/01/26 01:14:24;;;;;;;9.38;3.28;;;2.00;99.90;;;2.01;99.79;102270.56;5033118;28;20693;-72
2022/01/26 01:16:53;;;;;;;3.47;2.80;;;2.00;99.90;;;2.14;98.94;102273.00;5029764;28;20194;-71
2022/01/26 01:19:35;;;;;;;5.60;2.72;;;2.10;99.90;;;2.14;98.50;102267.84;5032515;28;20217;-70
2022/01/26 01:22:24;;;;;;;4.85;2.92;;;2.10;99.90;;;2.12;98.85;102271.28;5036823;28;20221;-70
2022/01/26 01:27:42;;;;;;;7.65;3.40;;;2.30;99.90;;;2.24;97.71;102273.72;5038923;28;20220;-70
2022/01/26 01:30:25;;;;;;;2.08;1.83;;;2.20;99.90;;;2.26;97.30;102282.28;5023324;28;20202;-71
2022/01/26 01:33:06;;;;;;;2.55;2.35;;;2.20;99.90;;;2.27;97.16;102281.44;5031855;28;20214;-70
2022/01/26 01:35:38;;;;;;;4.63;1.80;;;2.30;99.90;;;2.28;97.51;102289.13;5029405;28;20220;-71
2022/01/26 01:38:09;;;;;;;6.53;2.83;;;2.30;99.90;;;2.32;97.61;102297.69;5015984;28;20194;-71
2022/01/26 01:40:39;;;;;;;4.60;3.35;;;2.40;99.90;;;2.36;96.93;102294.19;5014917;28;20697;-71
2022/01/26 01:43:07;;;;;;;5.20;3.67;;;2.30;99.90;;;2.36;97.06;102292.44;5016592;28;20191;-71
2022/01/26 01:45:46;;;;;;;5.18;2.78;;;2.40;99.90;;;2.41;96.67;102302.72;5011728;28;20194;-72
2022/01/26 01:48:18;;;;;;;9.43;3.05;;;2.40;99.90;;;2.43;96.35;102307.88;5015143;28;20191;-72
2022/01/26 01:50:47;;;;;;;7.65;3.03;;;2.40;99.90;;;2.37;96.29;102306.19;5013370;28;20811;-71
2022/01/26 01:53:17;;;;;;;4.82;3.45;;;2.40;99.90;;;2.41;95.97;102304.47;5045969;28;20289;-72
2022/01/26 01:55:50;;;;;;;8.20;3.72;;;2.40;99.90;;;2.37;96.43;102306.19;5028497;28;20577;-72
2022/01/26 01:58:18;;;;;;;11.75;5.75;;;2.40;99.90;;;2.33;95.84;102305.38;5029861;28;20194;-71
2022/01/26 02:00:46;;;;;;;8.48;4.10;;;2.40;99.90;;;2.39;95.86;102309.59;5029962;28;20681;-71
2022/01/26 02:03:13;;;;;;;4.05;3.00;;;2.40;99.90;;;2.40;94.90;102311.31;5032377;28;20232;-71
2022/01/26 02:05:41;;;;;;;7.13;3.08;;;2.40;99.90;;;2.40;95.05;102311.31;5027974;28;20592;-72
2022/01/26 02:08:07;;;;;;;11.32;4.55;;;2.40;99.90;;;2.40;95.32;102313.91;5032499;28;20186;-70
2022/01/26 02:10:36;;;;;;;10.75;5.75;;;2.50;99.90;;;2.19;94.88;102307.25;5029771;28;20291;-68
2022/01/26 02:13:16;;;;;;;8.23;4.80;;;2.30;99.90;;;2.16;94.13;102303.88;5024793;28;20227;-72
2022/01/26 02:16:10;;;;;;;9.93;4.93;;;2.30;99.90;;;2.11;94.73;102297.91;5009747;28;20206;-71
2022/01/26 02:56:42;;;;;;;10.40;5.40;;;2.20;99.90;;;2.01;94.91;102286.00;5019834;28;20567;-71
2022/01/26 03:07:01;;;;;;;10.98;5.60;;;2.00;99.90;;;1.92;95.64;102283.50;5030615;28;20216;-72
2022/01/26 03:09:34;;;;;;;11.23;5.43;;;1.90;99.90;;;1.87;96.18;102277.59;5027960;28;20209;-71
2022/01/26 03:12:03;;;;;;;12.55;5.38;;;1.90;99.90;;;1.91;95.01;102271.53;5028985;28;20238;-69
2022/01/26 03:14:51;;;;;;;10.27;5.28;;;2.00;99.90;;;1.92;95.53;102274.06;5028696;28;20201;-72
2022/01/26 03:19:59;;;;;;;8.27;4.13;;;2.00;99.90;;;2.04;95.06;102265.38;5029063;28;20197;-72
2022/01/26 03:33:10;;;;;;;4.43;2.60;;;2.20;99.90;;;2.26;93.99;102257.38;5030128;28;20210;-71
2022/01/26 03:35:45;;;;;;;3.22;1.92;;;2.30;99.90;;;2.30;93.78;102245.31;5028091;28;20673;-72
2022/01/26 03:38:20;;;;;;;2.97;2.33;;;2.30;99.90;;;2.29;93.26;102251.34;5029108;28;20196;-68
2022/01/26 03:40:56;;;;;;;3.95;2.30;;;2.30;99.90;;;2.34;93.23;102259.88;5029284;28;20217;-71
2022/01/26 03:43:23;;;;;;;4.45;2.90;;;2.30;99.90;;;2.29;93.96;102259.06;5029325;28;20209;-70
2022/01/26 03:45:50;;;;;;;4.28;2.97;;;2.30;99.90;;;2.36;93.90;102264.13;5030321;28;20657;-72
2022/01/26 03:48:17;;;;;;;4.38;2.53;;;2.30;99.90;;;2.30;93.65;102263.34;5027615;28;20198;-71
2022/01/26 03:50:44;;;;;;;6.55;3.20;;;2.30;99.90;;;2.29;94.44;102264.22;5029559;28;20244;-69
2022/01/26 03:53:11;;;;;;;2.45;2.25;;;2.30;99.90;;;2.30;94.10;102260.75;5027651;28;20259;-74
2022/01/26 03:55:38;;;;;;;5.75;2.95;;;2.30;99.90;;;2.26;94.06;102264.25;5028449;28;20197;-71
2022/01/26 03:58:05;;;;;;;6.10;3.10;;;2.20;99.90;;;2.23;94.67;102269.47;5029665;28;20202;-71
2022/01/26 04:00:32;;;;;;;10.05;4.32;;;2.20;99.90;;;2.24;94.23;102269.44;5028881;28;20700;-71
2022/01/26 04:02:59;;;;;;;9.45;4.10;;;2.20;99.90;;;2.24;94.43;102269.44;5042236;28;20681;-72
2022/01/26 04:05:27;;;;;;;6.97;4.15;;;2.30;99.90;;;2.23;94.37;102272.88;5009717;28;20269;-72
2022/01/26 04:08:00;;;;;;;7.10;3.42;;;2.20;99.90;;;2.28;93.69;102270.22;5044398;28;20224;-71
2022/01/26 04:13:15;;;;;;;6.32;3.70;;;2.30;99.90;;;2.38;93.87;102263.25;5022789;28;20226;-71
2022/01/26 04:15:41;;;;;;;3.75;2.10;;;2.40;99.90;;;2.43;93.99;102261.50;5007140;28;20214;-71
2022/01/26 04:18:13;;;;;;;2.28;2.03;;;2.40;99.90;;;2.44;93.22;102251.16;5014547;28;20198;-72
2022/01/26 04:20:44;;;;;;;6.15;2.83;;;2.40;99.90;;;2.38;92.85;102253.81;5029453;28;20222;-71
2022/01/26 04:23:18;;;;;;;6.45;3.92;;;2.40;99.90;;;2.38;93.41;102253.81;5014971;28;20202;-71
2022/01/26 04:25:47;;;;;;;4.60;2.88;;;2.40;99.90;;;2.38;93.41;102265.84;5013398;28;20187;-70
2022/01/26 04:28:23;;;;;;;3.22;2.95;;;2.40;99.90;;;2.38;93.05;102261.53;5032122;28;20194;-71
2022/01/26 04:30:50;;;;;;;6.85;4.22;;;2.40;99.90;;;2.36;93.31;102263.28;5031580;28;20226;-70
2022/01/26 04:33:17;;;;;;;5.43;3.85;;;2.40;99.90;;;2.39;93.67;102258.09;5033717;28;20226;-71
2022/01/26 04:35:46;;;;;;;7.35;3.40;;;2.40;99.90;;;2.40;93.84;102271.81;5029847;28;20202;-70
2022/01/26 04:40:56;;;;;;;2.45;2.25;;;2.40;99.90;;;2.46;92.72;102264.00;5030917;28;20249;-71
2022/01/26 04:43:27;;;;;;;7.68;3.92;;;2.40;99.90;;;2.38;93.47;102271.84;5043019;28;20195;-72
2022/01/26 04:45:55;;;;;;;3.42;3.13;;;2.40;99.90;;;2.42;93.85;102267.50;5028441;28;20226;-71
2022/01/26 04:48:25;;;;;;;4.65;2.70;;;2.40;99.90;;;2.43;93.54;102258.91;5032247;28;20190;-69
2022/01/26 04:50:53;;;;;;;2.70;2.50;;;2.40;99.90;;;2.46;93.53;102264.88;4993823;28;1074324;-71
2022/01/26 04:53:20;;;;;;;2.85;2.10;;;2.50;99.90;;;2.48;93.16;102263.13;5027905;28;20227;-70
2022/01/26 04:55:47;;;;;;;4.25;2.15;;;2.50;99.90;;;2.45;93.72;102260.56;5028313;28;20206;-71
2022/01/26 04:58:14;;;;;;;4.57;2.00;;;2.50;99.90;;;2.46;93.27;102252.00;5040414;28;20194;-71
2022/01/26 05:00:41;;;;;;;3.67;3.35;;;2.50;99.90;;;2.38;93.62;102261.53;5041946;28;20218;-70
2022/01/26 05:03:08;;;;;;;4.00;2.92;;;2.40;99.90;;;2.38;94.05;102271.00;5033150;28;20577;-70
2022/01/26 05:05:39;;;;;;;5.72;2.55;;;2.40;99.90;;;2.35;93.43;102262.44;5032081;28;20228;-72
2022/01/26 05:08:06;;;;;;;3.33;2.88;;;2.40;99.90;;;2.32;94.17;102265.03;5015696;28;20194;-71
2022/01/26 05:10:36;;;;;;;4.85;3.00;;;2.30;99.90;;;2.28;93.79;102259.94;5031448;28;20248;-71
2022/01/26 05:13:03;;;;;;;5.68;2.63;;;2.40;99.90;;;2.39;93.28;102255.50;5030110;28;20228;-73
2022/01/26 05:15:30;;;;;;;3.53;2.47;;;2.50;99.90;;;2.29;93.65;102252.22;5031780;28;20204;-71
2022/01/26 05:17:57;;;;;;;3.20;2.42;;;2.40;99.90;;;2.29;93.69;102239.31;5026380;28;20198;-73
2022/01/26 05:20:24;;;;;;;4.25;2.50;;;2.30;99.90;;;2.27;94.01;102243.66;5031467;28;20616;-72
2022/01/26 05:22:50;;;;;;;4.30;3.10;;;2.30;99.90;;;2.26;93.96;102248.78;5031972;28;20572;-71
2022/01/26 05:25:20;;;;;;;3.88;2.92;;;2.30;99.90;;;2.27;94.29;102246.22;5032190;28;20686;-71
2022/01/26 05:27:47;;;;;;;2.42;2.28;;;2.30;99.90;;;2.26;94.73;102241.94;5029461;28;20206;-70
2022/01/26 05:30:15;;;;;;;3.75;2.00;;;2.30;99.90;;;2.26;94.50;102241.94;5044433;28;20209;-71
2022/01/26 05:32:42;;;;;;;2.75;2.47;;;2.20;99.90;;;2.27;94.75;102229.91;5024619;28;20232;-72
2022/01/26 05:35:10;;;;;;;6.15;2.80;;;2.30;99.90;;;2.26;94.55;102228.19;5010652;28;20249;-69
2022/01/26 05:37:37;;;;;;;3.25;2.35;;;2.30;99.90;;;2.29;94.76;102230.75;5011720;28;20213;-72
2022/01/26 05:40:05;;;;;;;2.20;1.85;;;2.30;99.90;;;2.23;95.42;102235.97;5027000;28;20198;-72
2022/01/26 05:42:38;;;;;;;4.40;2.45;;;2.20;99.90;;;2.27;94.68;102243.66;5032265;28;20190;-73
2022/01/26 05:45:15;;;;;;;2.90;2.70;;;2.30;99.90;;;2.28;94.17;102245.34;5047383;28;20292;-70
2022/01/26 05:47:43;;;;;;;1.52;0.98;;;2.30;99.90;;;2.23;94.16;102241.13;5011296;28;20594;-72
2022/01/26 05:50:10;;;;;;;5.28;2.88;;;2.30;99.90;;;2.25;94.27;102236.81;5024139;28;20221;-73
2022/01/26 05:52:37;;;;;;;2.45;2.25;;;2.30;99.90;;;2.30;92.94;102240.16;5031359;28;20783;-72
2022/01/26 05:55:04;;;;;;;2.20;2.00;;;2.30;99.90;;;2.29;93.37;102230.75;5028118;28;20209;-72
2022/01/26 05:57:31;;;;;;;1.63;1.52;;;2.30;99.90;;;2.26;93.25;102223.03;5040170;28;20657;-72
2022/01/26 05:59:58;;;;;;;1.95;1.85;;;2.30;99.90;;;2.31;93.09;102219.56;5030145;28;20198;-73
2022/01/26 06:02:25;;;;;;;3.90;3.13;;;2.30;99.90;;;2.22;93.15;102214.50;5012397;28;20609;-72
2022/01/26 06:04:52;;;;;;;5.20;3.00;;;2.30;99.90;;;2.24;93.47;102225.66;5029223;28;20202;-73
2022/01/26 06:07:19;;;;;;;4.78;2.13;;;2.30;99.90;;;2.25;93.93;102231.66;5032826;28;20737;-71
2022/01/26 06:09:46;;;;;;;3.47;2.00;;;2.30;99.90;;;2.25;93.72;102217.06;5030700;28;20510;-72
2022/01/26 06:12:12;;;;;;;1.67;1.55;;;2.30;99.90;;;2.21;94.02;102214.53;5010695;28;20329;-72
2022/01/26 06:14:39;;;;;;;1.83;1.73;;;2.20;99.90;;;2.22;93.47;102213.66;5010973;28;20199;-73
2022/01/26 06:17:07;;;;;;;5.50;4.00;;;2.20;99.90;;;2.23;92.46;102216.22;5029934;28;20666;-72
2022/01/26 06:19:34;;;;;;;2.70;2.05;;;2.30;99.90;;;2.21;92.92;102224.84;5047497;28;20472;-71
2022/01/26 06:22:01;;;;;;;3.42;2.40;;;2.30;99.90;;;2.29;92.59;102229.03;5030278;28;20222;-70
2022/01/26 06:24:29;;;;;;;5.85;2.33;;;2.30;99.90;;;2.35;91.81;102223.78;5012767;28;20194;-72
2022/01/26 06:26:56;;;;;;;3.75;1.83;;;2.40;99.90;;;2.16;91.52;102224.03;5023237;28;20252;-71
2022/01/26 06:29:23;;;;;;;2.15;1.80;;;2.20;99.90;;;2.18;91.87;102233.44;5031645;28;20190;-72
2022/01/26 06:31:50;;;;;;;2.92;1.88;;;2.20;99.90;;;2.22;91.18;102217.09;5013173;28;20226;-71
2022/01/26 06:34:17;;;;;;;4.10;2.50;;;2.30;99.90;;;2.25;90.94;102224.78;5011756;28;20217;-71
2022/01/26 06:36:44;;;;;;;4.63;2.22;;;2.30;99.90;;;2.25;90.65;102237.66;5023604;28;20198;-71
2022/01/26 06:39:14;;;;;;;4.20;2.25;;;2.30;99.90;;;2.16;90.22;102249.78;5030692;28;20210;-72
2022/01/26 06:41:53;;;;;;;2.10;1.90;;;2.20;99.90;;;2.21;89.62;102261.75;5031234;28;20610;-71
2022/01/26 06:44:30;;;;;;;2.72;1.63;;;2.20;99.90;;;2.20;89.40;102259.19;5030913;28;20217;-71
2022/01/26 06:49:38;;;;;;;1.40;1.30;;;2.30;99.90;;;2.21;88.91;102258.31;5030148;28;20198;-69
2022/01/26 06:52:05;;;;;;;1.77;1.60;;;2.20;99.90;;;2.13;89.38;102260.16;5041205;22;20238;-65
2022/01/26 06:54:32;;;;;;;2.28;1.63;;;2.20;99.90;;;2.16;89.22;102272.97;4992917;28;20207;-64
2022/01/26 06:56:59;;;;;;;1.75;1.65;;;2.20;99.90;;;2.17;88.95;102272.09;5011452;28;20198;-65
2022/01/26 06:59:26;;;;;;;2.35;2.15;;;2.20;99.90;;;2.20;88.83;102272.91;5011223;28;20195;-63
2022/01/26 07:01:53;;;;;;;5.90;2.80;;;2.30;99.90;;;2.17;88.33;102272.09;4998895;28;20227;-64
2022/01/26 07:04:20;;;;;;;2.35;1.90;;;2.20;99.90;;;2.22;88.43;102270.31;4968481;28;20282;-65
2022/01/26 07:06:47;;;;;;;2.80;1.88;;;2.30;99.90;;;2.22;88.20;102289.19;4984923;28;20213;-64
2022/01/26 07:09:16;;;;;;;2.95;1.73;;;2.30;99.90;;;2.20;89.00;102300.38;4999022;28;20210;-64
2022/01/26 07:11:45;;;;;;;1.45;1.45;;;2.20;99.90;;;2.22;88.24;102301.22;4985845;28;20306;-64
2022/01/26 07:14:22;;;;;;;1.10;0.88;;;2.20;99.90;;;2.23;88.20;102308.09;5005672;28;20227;-65
2022/01/26 07:19:53;;;;;;;1.88;1.77;;;2.30;99.90;;;2.25;87.45;102296.03;4990892;28;20289;-64
2022/01/26 07:22:20;;;;;;;1.83;1.73;;;2.30;99.90;;;2.15;87.76;102310.72;4991353;28;20689;-64
2022/01/26 07:24:47;;;;;;;2.42;1.85;;;2.20;99.90;;;2.21;88.09;102314.97;4990863;28;20207;-64
2022/01/26 07:27:15;;;;;;;1.65;1.48;;;2.30;99.90;;;1.95;88.27;102316.97;4990871;28;20231;-65
2022/01/26 07:29:42;;;;;;;3.45;2.55;;;2.20;99.90;;;2.12;87.60;102307.34;5005639;28;20204;-65
2022/01/26 07:32:09;;;;;;;0.80;0.80;;;2.20;99.90;;;2.02;88.05;102319.44;4990008;28;20229;-64
2022/01/26 07:34:37;;;;;;;2.40;1.27;;;2.10;99.90;;;2.17;86.69;102332.16;4990566;28;20639;-65
2022/01/26 07:37:06;;;;;;;1.65;1.20;;;2.20;99.90;;;2.17;86.74;102331.34;4988593;28;20201;-66
2022/01/26 07:39:45;;;;;;;3.53;2.30;;;2.20;99.90;;;2.07;87.26;102328.00;4988746;28;20196;-64
2022/01/26 07:42:13;;;;;;;0.68;0.68;;;2.20;99.90;;;2.14;87.57;102314.19;4988429;28;20227;-65
2022/01/26 07:44:40;;;;;;;3.80;1.10;;;2.20;99.90;;;2.16;87.12;102320.19;4972627;28;20554;-65
2022/01/26 07:47:07;;;;;;;1.50;1.40;;;2.20;99.90;;;2.13;87.24;102321.94;4974462;28;20636;-65
2022/01/26 07:49:34;;;;;;;1.92;1.83;;;2.20;99.90;;;2.16;86.73;102321.88;4978500;28;20295;-65
2022/01/26 07:52:01;;;;;;;2.63;1.63;;;2.20;99.90;;;2.12;87.29;102322.78;4986149;28;20313;-64
2022/01/26 07:54:31;;;;;;;4.32;1.50;;;2.20;99.90;;;2.12;87.12;102330.53;4994369;28;20219;-66
2022/01/26 07:56:58;;;;;;;3.33;1.50;;;2.20;99.90;;;2.13;87.13;102329.66;4995006;28;20207;-65
2022/01/26 07:59:28;;;;;;;1.77;1.67;;;2.20;99.90;;;2.21;86.27;102327.84;4993205;28;20230;-64
2022/01/26 08:01:55;;;;;;;0.90;0.90;;;2.20;99.90;;;2.23;85.77;102329.56;4996119;28;20223;-66
2022/01/26 08:04:22;;;;;;;3.47;1.70;;;2.30;99.90;;;2.30;85.72;102333.75;4995144;28;20237;-65
2022/01/26 08:06:50;;;;;;;5.07;3.42;;;2.30;99.90;;;2.29;85.40;102341.50;4994911;28;20674;-65
2022/01/26 08:09:18;;;;;;;0.75;0.75;;;2.40;99.90;;;2.30;85.81;102345.75;4978478;28;20678;-64
2022/01/26 08:11:44;;;;;;;1.60;1.33;;;2.40;99.90;;;2.25;85.89;102326.94;5009885;28;20608;-65
2022/01/26 08:14:12;;;;;;;2.92;1.50;;;2.40;99.90;;;2.27;86.12;102325.22;4994081;28;20227;-65
2022/01/26 08:16:39;;;;;;;2.10;1.85;;;2.30;99.90;;;2.30;84.95;102331.16;4993308;28;20204;-64
2022/01/26 08:19:07;;;;;;;0.77;0.50;;;2.40;99.90;;;2.32;85.39;102332.00;4992741;28;20357;-65
2022/01/26 08:21:34;;;;;;;1.48;1.20;;;2.30;99.90;;;2.29;85.43;102332.06;5007179;28;20228;-65
2022/01/26 08:24:12;;;;;;;2.50;1.58;;;2.30;99.90;;;2.32;85.55;102349.22;4981266;28;20735;-65
2022/01/26 08:26:45;;;;;;;3.00;2.28;;;2.30;99.90;;;2.27;85.67;102332.94;4961157;28;20322;-64
2022/01/26 08:29:25;;;;;;;2.92;2.03;;;2.30;99.90;;;2.30;86.05;102320.00;4992866;28;20294;-66
2022/01/26 08:31:52;;;;;;;7.03;3.15;;;2.30;99.90;;;2.29;85.64;102318.31;4987650;28;20602;-65
2022/01/26 08:34:19;;;;;;;2.08;1.45;;;2.30;99.90;;;2.26;85.68;102321.78;4991469;28;20215;-66
2022/01/26 08:36:46;;;;;;;5.60;1.67;;;2.40;99.90;;;2.27;85.74;102309.75;4993650;28;20227;-64
2022/01/26 08:39:13;;;;;;;2.60;2.40;;;2.30;99.90;;;2.27;85.70;102309.75;5008363;28;20199;-64
2022/01/26 08:41:42;;;;;;;4.68;2.85;;;2.30;99.90;;;2.24;84.83;102304.63;4975791;28;20350;-64
2022/01/26 08:44:09;;;;;;;1.95;0.90;;;2.40;99.90;;;2.30;84.82;102291.66;4992631;28;20214;-64
2022/01/26 08:46:36;;;;;;;1.00;0.98;;;2.40;99.90;;;2.11;85.84;102287.59;4991760;28;20234;-64
2022/01/26 08:49:04;;;;;;;0.88;0.88;;;2.30;99.90;;;2.00;86.30;102294.63;4993482;28;20229;-64
2022/01/26 08:51:31;;;;;;;6.25;2.50;;;2.10;99.90;;;2.01;86.50;102306.59;4992443;28;20261;-64
2022/01/26 08:53:58;;;;;;;0.98;0.70;;;2.10;99.90;;;2.02;86.17;102311.72;4992149;28;20234;-66
2022/01/26 08:56:26;;;;;;;1.38;1.15;;;2.10;99.90;;;2.03;86.28;102310.88;4989521;28;20207;-64
2022/01/26 08:58:54;;;;;;;2.92;2.25;;;2.10;99.90;;;2.13;86.24;102314.22;4991956;28;20196;-64
2022/01/26 09:01:21;;;;;;;1.70;1.60;;;2.10;99.90;;;1.97;86.45;102325.53;4988582;28;20700;-64
2022/01/26 09:03:49;;;;;;;2.88;1.90;;;2.10;99.90;;;2.05;86.10;102314.28;4986922;28;20203;-65
2022/01/26 09:06:16;;;;;;;2.10;1.83;;;2.10;99.90;;;2.05;87.04;102308.28;4992576;28;20207;-64
2022/01/26 09:08:45;;;;;;;6.05;2.60;;;2.10;99.90;;;2.09;86.38;102294.50;4993255;28;20211;-64
2022/01/26 09:11:12;;;;;;;3.25;2.40;;;2.10;99.90;;;2.09;86.81;102303.06;4992585;28;20326;-66
2022/01/26 09:13:39;;;;;;;5.72;3.05;;;2.10;99.90;;;2.14;86.78;102306.47;4991365;28;20219;-64
2022/01/26 09:16:08;;;;;;;5.13;2.55;;;2.10;99.90;;;2.25;87.25;102303.78;5006490;28;20217;-65
2022/01/26 09:18:48;;;;;;;4.93;2.45;;;2.30;99.90;;;2.25;87.11;102308.91;4991567;28;20892;-65
2022/01/26 09:21:15;;;;;;;3.15;2.90;;;2.30;99.90;;;2.33;85.80;102314.84;4988087;28;20604;-65
2022/01/26 09:23:43;;;;;;;3.78;2.17;;;2.40;99.90;;;2.25;86.28;102306.34;4991514;28;20223;-64
2022/01/26 09:26:13;;;;;;;5.38;3.03;;;2.30;99.90;;;2.28;85.95;102317.47;4992221;28;20269;-64
2022/01/26 09:28:40;;;;;;;6.13;2.90;;;2.30;99.90;;;2.31;85.29;102314.00;4989812;28;20223;-64
2022/01/26 09:31:11;;;;;;;3.47;2.72;;;2.40;99.90;;;2.40;84.87;102306.16;4988938;28;20285;-65
2022/01/26 09:33:38;;;;;;;3.42;2.25;;;2.50;99.90;;;2.43;84.48;102300.13;4985445;28;20227;-65
2022/01/26 09:36:05;;;;;;;4.47;3.00;;;2.50;99.90;;;2.34;84.35;102309.66;4989064;28;20206;-65
2022/01/26 09:38:32;;;;;;;4.13;2.83;;;2.40;99.90;;;2.37;84.91;102311.34;4975368;28;20203;-64
2022/01/26 09:40:59;;;;;;;1.67;1.02;;;2.40;99.90;;;2.43;85.68;102315.59;4991818;28;20234;-64
2022/01/26 09:43:28;;;;;;;2.28;2.13;;;2.40;99.90;;;2.35;85.21;102321.69;4993238;28;20238;-65
2022/01/26 09:45:55;;;;;;;3.13;2.00;;;2.40;99.90;;;2.40;84.29;102320.78;4991830;28;20207;-64
2022/01/26 09:48:22;;;;;;;5.85;3.50;;;2.50;99.90;;;2.43;84.98;102325.91;4993248;28;20213;-64
2022/01/26 09:50:54;;;;;;;4.88;2.63;;;2.50;99.90;;;2.48;84.60;102324.97;4971386;28;20259;-64
2022/01/26 09:53:27;;;;;;;2.75;2.50;;;2.50;99.90;;;2.53;84.20;102333.50;4988876;28;20231;-66
2022/01/26 09:55:54;;;;;;;4.15;2.45;;;2.60;99.90;;;2.49;84.10;102352.44;4976043;28;20200;-64
2022/01/26 09:58:21;;;;;;;5.70;3.13;;;2.60;99.90;;;2.56;83.89;102369.53;4993662;28;20235;-65
2022/01/26 10:00:58;;;;;;;5.70;3.65;;;2.60;99.90;;;2.60;84.30;102370.34;4992480;28;20230;-66
2022/01/26 10:03:30;;;;;;;7.90;4.32;;;2.70;99.90;;;2.63;84.01;102375.47;5006520;28;20342;-64
2022/01/26 10:05:58;;;;;;;8.05;4.05;;;2.70;99.90;;;2.64;83.70;102375.44;4975656;28;20203;-65
2022/01/26 10:19:10;;;;;;;3.80;3.28;;;2.70;99.90;;;2.60;84.08;102376.34;4989902;28;20678;-65
2022/01/26 10:21:48;;;;;;;7.00;3.83;;;2.70;99.90;;;2.64;83.53;102359.13;4997325;28;20227;-65
2022/01/26 10:24:17;;;;;;;2.58;2.40;;;2.80;99.90;;;2.66;83.18;102367.72;4979754;28;20208;-66
2022/01/26 10:26:49;;;;;;;6.70;2.78;;;2.80;99.90;;;2.69;82.88;102360.78;4983695;28;20261;-66
2022/01/26 10:29:17;;;;;;;3.85;2.80;;;2.80;99.90;;;2.64;83.59;102359.13;5006787;28;20227;-63
2022/01/26 10:31:44;;;;;;;3.97;2.60;;;2.70;99.90;;;2.65;83.96;102368.56;4975246;28;20710;-62
2022/01/26 10:34:22;;;;;;;4.30;2.85;;;2.80;99.90;;;2.68;83.43;102369.41;4988766;28;20247;-66
2022/01/26 10:36:54;;;;;;;6.90;4.20;;;2.80;99.90;;;2.59;83.70;102368.63;5004756;28;20238;-67
2022/01/26 10:39:31;;;;;;;6.38;4.30;;;2.70;99.90;;;2.65;83.90;102364.28;4989762;28;20203;-65
2022/01/26 10:42:02;;;;;;;8.00;5.03;;;2.80;99.90;;;2.66;83.48;102365.13;5004650;28;20221;-66
2022/01/26 10:44:41;;;;;;;6.15;4.00;;;2.80;99.90;;;2.59;83.72;102378.94;4990617;28;20211;-66
2022/01/26 10:47:09;;;;;;;8.23;3.95;;;2.70;99.90;;;2.57;83.26;102366.09;4988709;28;20203;-67
2022/01/26 10:54:50;;;;;;;6.10;2.80;;;2.80;99.90;;;2.77;82.60;102353.78;4979453;28;20609;-65
2022/01/26 10:57:18;;;;;;;0.85;0.38;;;2.90;99.90;;;2.71;83.46;102330.69;4984683;28;20227;-66
2022/01/26 10:59:48;;;;;;;5.18;3.05;;;2.90;99.90;;;2.64;83.46;102335.94;4983830;28;20199;-65
2022/01/26 11:02:33;;;;;;;3.63;2.72;;;2.80;99.90;;;2.69;82.81;102337.59;4988255;28;20234;-66
2022/01/26 11:05:00;;;;;;;6.88;3.33;;;2.80;99.90;;;2.74;82.74;102351.28;4976518;28;20211;-66
2022/01/26 11:07:42;;;;;;;5.70;2.95;;;2.80;99.90;;;2.56;83.42;102343.75;4990658;28;20207;-66
2022/01/26 11:10:12;;;;;;;4.28;3.20;;;2.70;99.90;;;2.58;83.99;102331.69;4989346;28;20199;-67
2022/01/26 11:12:41;;;;;;;3.42;2.65;;;2.70;99.90;;;2.63;83.18;102336.81;4989917;28;20249;-67
2022/01/26 11:15:13;;;;;;;4.57;2.63;;;2.70;99.90;;;2.72;82.78;102337.56;4983377;28;20302;-67
2022/01/26 11:17:46;;;;;;;0.88;0.88;;;2.80;99.90;;;2.56;82.25;102333.44;4971745;28;20399;-67
2022/01/26 11:20:34;;;;;;;1.98;1.88;;;2.80;99.90;;;2.81;81.94;102344.31;4978639;28;20733;-62
2022/01/26 11:23:05;;;;;;;7.85;4.60;;;2.90;99.90;;;2.88;82.14;102336.47;4999963;28;20788;-65
2022/01/26 11:25:46;;;;;;;2.00;1.85;;;3.00;99.90;;;2.84;80.93;102350.28;4984648;28;20638;-65
2022/01/26 11:28:27;;;;;;;5.32;3.15;;;3.00;99.90;;;2.90;80.97;102333.88;4991044;28;20211;-66
2022/01/26 11:30:59;;;;;;;2.60;1.60;;;3.00;99.90;;;3.02;80.33;102329.38;4989744;28;20881;-66
2022/01/26 11:33:28;;;;;;;2.95;1.90;;;3.00;99.90;;;2.97;79.89;102338.06;4988220;28;20226;-67
2022/01/26 11:35:58;;;;;;;1.20;1.13;;;3.00;99.90;;;3.02;79.70;102339.69;5004509;28;20448;-66
2022/01/26 11:46:36;;;;;;;3.70;1.55;;;3.00;99.90;;;3.07;78.84;102331.91;4986993;28;20218;-65
2022/01/26 11:49:08;;;;;;;4.20;2.38;;;3.10;99.90;;;3.04;79.12;102337.97;5001262;28;20214;-64
2022/01/26 11:51:49;;;;;;;2.08;1.98;;;3.20;99.90;;;3.03;79.07;102335.41;4990671;28;20243;-64
2022/01/26 11:54:24;;;;;;;2.83;2.22;;;3.10;99.90;;;2.93;79.63;102339.84;4990823;28;20315;-64
2022/01/26 11:57:08;;;;;;;5.55;1.50;;;3.00;99.90;;;2.99;79.20;102336.31;4987097;28;20563;-65
2022/01/26 11:59:41;;;;;;;3.20;2.90;;;3.10;99.90;;;2.82;80.57;102336.56;4971705;28;20236;-65
2022/01/26 12:02:30;;;;;;;5.95;2.83;;;3.00;99.90;;;2.90;81.00;102327.00;4974831;28;20307;-62
2022/01/26 12:05:00;;;;;;;2.15;2.00;;;2.90;99.90;;;2.87;81.14;102324.47;4972803;28;20207;-66
2022/01/26 12:07:28;;;;;;;6.68;2.97;;;2.90;99.90;;;2.89;81.82;102317.56;5003898;28;20215;-65
2022/01/26 12:09:56;;;;;;;24.00;10.13;;;3.00;99.90;;;2.95;80.83;102325.22;5005884;28;20286;-62
2022/01/26 12:12:24;;;;;;;10.82;6.07;;;3.10;99.90;;;2.95;80.30;102322.63;4973638;28;20345;-64
2022/01/26 12:15:11;;;;;;;3.65;2.55;;;3.00;99.90;;;2.96;80.13;102319.16;4990935;28;20225;-65
2022/01/26 12:43:01;;;;;;;1.85;1.73;;;3.10;99.90;;;3.08;78.37;102331.91;4994613;28;20219;-66
2022/01/26 12:45:54;;;;;;;0.85;0.85;;;3.10;99.90;;;3.11;78.35;102339.59;4995406;28;20210;-67
2022/01/26 12:48:22;;;;;;;3.15;2.60;;;3.20;99.90;;;2.99;78.47;102324.28;4993701;28;20203;-66
2022/01/26 12:53:36;;;;;;;0.98;0.93;;;3.00;99.90;;;3.00;78.86;102325.97;5012713;28;20313;-71
2022/01/26 12:56:07;;;;;;;2.47;0.82;;;3.10;99.90;;;2.86;79.09;102325.34;5014357;28;20322;-71